createdAt,value
2022-10-22T08:26:14.918Z,13.37
2022-10-22T08:28:21.173Z,13.37
2022-10-22T08:30:26.719Z,13.41
2022-10-22T08:32:30.882Z,13.90
2022-10-22T08:34:33.633Z,14.35
2022-10-22T08:36:35.870Z,14.41
2022-10-22T08:38:38.250Z,14.44
2022-10-22T08:40:41.243Z,14.29
2022-10-22T08:43:05.576Z,14.08
2022-10-22T08:45:26.870Z,14.16
2022-10-22T08:47:53.719Z,13.95
2022-10-22T08:49:57.132Z,13.86
2022-10-22T08:52:00.336Z,13.88
2022-10-22T08:54:42.995Z,14.15
2022-10-22T08:57:14.813Z,14.41
2022-10-22T08:59:31.993Z,14.41
2022-10-22T09:01:41.678Z,14.55
2022-10-22T09:03:54.882Z,14.48
2022-10-22T09:06:22.679Z,14.57
2022-10-22T09:08:25.329Z,14.73
2022-10-22T09:10:34.359Z,14.61
2022-10-22T09:12:36.931Z,14.88
2022-10-22T09:14:39.161Z,15.04
2022-10-22T09:17:15.226Z,14.93
2022-10-22T09:19:54.325Z,14.93
2022-10-22T09:22:11.269Z,14.76
2022-10-22T09:24:26.665Z,14.83
2022-10-22T09:26:34.794Z,14.97
2022-10-22T09:28:37.041Z,15.05
2022-10-22T09:30:40.026Z,15.20
2022-10-22T09:32:43.139Z,15.10
2022-10-22T09:34:47.905Z,15.17
2022-10-22T09:37:05.116Z,15.19
2022-10-22T09:39:42.578Z,15.13
2022-10-22T09:41:45.338Z,15.17
2022-10-22T09:43:48.159Z,15.04
2022-10-22T09:45:58.131Z,14.97
2022-10-22T09:48:11.225Z,14.96
2022-10-22T09:50:21.414Z,15.10
2022-10-22T09:52:31.085Z,15.14
2022-10-22T09:54:34.856Z,15.07
2022-10-22T09:56:43.346Z,15.05
2022-10-22T09:58:49.410Z,15.35
2022-10-22T10:00:58.078Z,15.53
2022-10-22T10:03:00.812Z,15.64
2022-10-22T10:05:04.113Z,15.77
2022-10-22T10:07:16.404Z,15.90
2022-10-22T10:09:21.619Z,15.98
2022-10-22T10:11:29.451Z,16.10
2022-10-22T10:13:51.193Z,16.01
2022-10-22T10:16:00.647Z,15.75
2022-10-22T10:18:36.542Z,15.85
2022-10-22T10:20:50.476Z,15.82
2022-10-22T10:23:08.941Z,15.95
2022-10-22T10:25:28.297Z,16.04
2022-10-22T10:27:55.311Z,16.13
2022-10-22T10:30:24.742Z,16.03
2022-10-22T10:32:42.586Z,15.58
2022-10-22T10:34:53.852Z,15.50
2022-10-22T10:37:23.244Z,15.74
2022-10-22T10:39:47.140Z,15.92
2022-10-22T10:42:05.821Z,16.01
2022-10-22T10:44:14.230Z,15.86
2022-10-22T10:46:32.224Z,16.17
2022-10-22T10:48:50.361Z,16.55
2022-10-22T10:51:20.297Z,16.70
2022-10-22T10:53:59.539Z,16.70
2022-10-22T10:56:20.184Z,16.73
2022-10-22T10:58:42.271Z,16.74
2022-10-22T11:01:03.029Z,16.56
2022-10-22T11:03:24.454Z,16.62
2022-10-22T11:05:53.554Z,16.61
2022-10-22T11:08:29.814Z,16.50
2022-10-22T11:10:39.191Z,16.31
2022-10-22T11:12:48.860Z,16.41
2022-10-22T11:15:03.373Z,16.38
2022-10-22T11:17:17.081Z,16.40
2022-10-22T11:19:22.910Z,16.31
2022-10-22T11:21:44.041Z,16.10
2022-10-22T11:24:06.155Z,16.22
2022-10-22T11:26:15.651Z,16.24
2022-10-22T11:28:33.781Z,16.45
2022-10-22T11:30:38.149Z,16.19
2022-10-22T11:32:44.067Z,16.11
2022-10-22T11:34:54.837Z,16.23
2022-10-22T11:36:58.273Z,16.52
2022-10-22T11:39:02.661Z,16.68
2022-10-22T11:41:13.797Z,16.75
2022-10-22T11:43:30.881Z,16.96
2022-10-22T11:45:39.044Z,16.92
2022-10-22T11:47:53.592Z,16.98
2022-10-22T11:50:17.034Z,17.17
2022-10-22T11:52:33.676Z,17.32
2022-10-22T11:54:37.405Z,17.55
2022-10-22T11:56:40.017Z,17.53
2022-10-22T11:58:44.884Z,17.71
2022-10-22T12:00:48.790Z,17.63
2022-10-22T12:03:16.883Z,17.60
2022-10-22T12:05:22.233Z,17.63
2022-10-22T12:07:54.917Z,17.70
2022-10-22T12:09:58.614Z,17.95
2022-10-22T12:12:15.736Z,17.68
2022-10-22T12:14:32.421Z,17.61
2022-10-22T12:16:56.935Z,17.31
2022-10-22T12:19:14.368Z,17.26
2022-10-22T12:21:18.058Z,17.11
2022-10-22T12:23:31.729Z,17.18
2022-10-22T12:25:35.673Z,17.12
2022-10-22T12:27:40.976Z,17.05
2022-10-22T12:29:43.750Z,17.04
2022-10-22T12:31:47.511Z,17.28
2022-10-22T12:33:58.908Z,16.93
2022-10-22T12:36:04.168Z,16.64
2022-10-22T12:38:15.305Z,16.48
2022-10-22T12:40:17.760Z,16.48
2022-10-22T12:42:21.983Z,16.39
2022-10-22T12:44:24.238Z,16.42
2022-10-22T12:46:28.389Z,16.39
2022-10-22T12:48:36.130Z,16.55
2022-10-22T12:50:44.792Z,16.49
2022-10-22T12:52:48.339Z,16.45
2022-10-22T12:54:52.673Z,16.16
2022-10-22T12:56:57.026Z,15.94
2022-10-22T12:59:02.819Z,15.96
2022-10-22T13:01:05.868Z,15.93
2022-10-22T13:03:08.170Z,16.02
2022-10-22T13:05:16.580Z,16.04
2022-10-22T13:07:21.858Z,16.06
2022-10-22T13:09:27.464Z,15.99
2022-10-22T13:11:50.920Z,15.83
2022-10-22T13:14:01.864Z,15.77
2022-10-22T13:16:25.783Z,15.76
2022-10-22T13:18:33.243Z,15.73
2022-10-22T13:20:37.515Z,15.59
2022-10-22T13:22:42.217Z,15.50
2022-10-22T13:24:51.239Z,15.41
2022-10-22T13:26:54.652Z,15.49
2022-10-22T13:28:58.459Z,15.45
2022-10-22T13:31:08.761Z,15.37
2022-10-22T13:33:29.369Z,15.45
2022-10-22T13:35:35.631Z,15.47
2022-10-22T13:37:38.725Z,15.55
2022-10-22T13:39:41.349Z,15.57
2022-10-22T13:41:43.863Z,15.60
2022-10-22T13:43:46.120Z,15.84
2022-10-22T13:45:54.187Z,15.85
2022-10-22T13:47:57.134Z,15.95
2022-10-22T13:50:01.628Z,15.94
2022-10-22T13:52:04.408Z,15.69
2022-10-22T13:54:16.104Z,15.66
2022-10-22T13:56:21.546Z,15.53
2022-10-22T13:58:25.164Z,15.52
2022-10-22T14:00:27.784Z,15.58
2022-10-22T14:02:30.382Z,15.51
2022-10-22T14:04:35.658Z,15.60
2022-10-22T14:06:37.978Z,15.62
2022-10-22T14:08:41.023Z,15.57
2022-10-22T14:10:43.636Z,15.60
2022-10-22T14:12:52.280Z,15.68
2022-10-22T14:16:59.473Z,15.69
2022-10-22T14:19:02.957Z,15.74
2022-10-22T14:21:07.554Z,15.52
2022-10-22T14:23:23.202Z,15.44
2022-10-22T14:25:26.511Z,15.28
2022-10-22T14:27:32.038Z,15.46
2022-10-22T14:29:34.290Z,15.36
2022-10-22T14:31:38.035Z,15.26
2022-10-22T14:33:40.630Z,15.32
2022-10-22T14:35:43.229Z,15.26
2022-10-22T14:37:45.719Z,15.19
2022-10-22T14:39:52.609Z,15.17
2022-10-22T14:42:00.252Z,15.09
2022-10-22T14:44:02.619Z,15.10
2022-10-22T14:46:05.393Z,15.14
2022-10-22T14:48:08.664Z,15.11
2022-10-22T14:50:11.344Z,15.20
2022-10-22T14:52:14.982Z,15.27
2022-10-22T14:54:18.443Z,15.26
2022-10-22T14:56:23.418Z,15.28
2022-10-22T14:58:26.597Z,15.12
2022-10-22T15:00:28.958Z,15.12
2022-10-22T15:02:31.323Z,15.04
2022-10-22T15:04:33.833Z,14.79
2022-10-22T15:06:36.337Z,14.86
2022-10-22T15:08:39.503Z,14.83
2022-10-22T15:10:42.098Z,14.68
2022-10-22T15:12:45.745Z,14.77
2022-10-22T15:14:48.656Z,14.80
2022-10-22T15:16:51.392Z,14.85
2022-10-22T15:18:53.635Z,14.92
2022-10-22T15:21:01.800Z,14.81
2022-10-22T15:23:04.378Z,14.73
2022-10-22T15:25:10.427Z,14.77
2022-10-22T15:27:15.376Z,14.76
2022-10-22T15:29:18.121Z,14.69
2022-10-22T15:31:46.869Z,14.53
2022-10-22T15:33:52.048Z,14.55
2022-10-22T15:35:55.852Z,14.56
2022-10-22T15:37:58.083Z,14.44
2022-10-22T15:40:00.727Z,14.33
2022-10-22T15:42:03.519Z,14.33
2022-10-22T15:44:06.261Z,14.18
2022-10-22T15:46:20.175Z,14.14
2022-10-22T15:48:22.710Z,14.26
2022-10-22T15:50:25.249Z,14.28
2022-10-22T15:52:27.566Z,14.30
2022-10-22T15:54:31.095Z,14.42
2022-10-22T15:56:33.396Z,14.39
2022-10-22T15:58:35.739Z,14.35
2022-10-22T16:00:38.315Z,14.41
2022-10-22T16:02:41.356Z,14.28
2022-10-22T16:04:43.905Z,14.25
2022-10-22T16:06:55.005Z,14.13
2022-10-22T16:08:59.536Z,13.94
2022-10-22T16:11:01.918Z,13.84
2022-10-22T16:13:05.055Z,13.96
2022-10-22T16:15:09.022Z,13.90
2022-10-22T16:17:11.397Z,13.82
2022-10-22T16:19:16.224Z,13.61
2022-10-22T16:21:20.388Z,13.46
2022-10-22T16:23:22.699Z,13.49
2022-10-22T16:25:25.736Z,13.36
2022-10-22T16:27:28.304Z,13.15
2022-10-22T16:29:30.586Z,13.09
2022-10-22T16:31:33.052Z,12.94
2022-10-22T16:33:41.555Z,12.83
2022-10-22T16:35:48.782Z,12.70
2022-10-22T16:37:51.345Z,12.65
2022-10-22T16:39:53.946Z,12.39
2022-10-22T16:41:56.482Z,12.30
2022-10-22T16:44:01.187Z,12.31
2022-10-22T16:46:04.347Z,12.13
2022-10-22T16:48:06.728Z,11.78
2022-10-22T16:50:10.448Z,11.69
2022-10-22T16:52:12.987Z,11.61
2022-10-22T16:54:15.745Z,11.54
2022-10-22T16:56:19.071Z,11.60
2022-10-22T16:58:21.694Z,11.62
2022-10-22T17:00:25.151Z,11.53
2022-10-22T17:02:27.527Z,11.58
2022-10-22T17:04:30.348Z,11.66
2022-10-22T17:06:32.688Z,11.62
2022-10-22T17:08:36.606Z,11.54
2022-10-22T17:10:40.224Z,11.64
2022-10-22T17:12:43.376Z,11.64
2022-10-22T17:14:46.493Z,11.63
2022-10-22T17:16:53.670Z,11.53
2022-10-22T17:18:56.494Z,11.54
2022-10-22T17:20:59.404Z,11.63
2022-10-22T17:23:02.654Z,11.49
2022-10-22T17:25:19.259Z,11.62
2022-10-22T17:27:21.968Z,11.80
2022-10-22T17:29:25.479Z,11.82
2022-10-22T17:31:38.994Z,11.71
2022-10-22T17:33:41.761Z,11.76
2022-10-22T17:35:44.868Z,11.65
2022-10-22T17:37:47.574Z,11.69
2022-10-22T17:39:49.998Z,11.47
2022-10-22T17:41:53.173Z,11.52
2022-10-22T17:43:57.247Z,11.60
2022-10-22T17:46:07.471Z,11.53
2022-10-22T17:48:10.045Z,11.77
2022-10-22T17:50:12.657Z,11.77
2022-10-22T17:52:16.078Z,11.90
2022-10-22T17:54:19.480Z,11.98
2022-10-22T17:56:24.581Z,12.05
2022-10-22T17:58:29.695Z,12.02
2022-10-22T18:00:36.221Z,12.20
2022-10-22T18:02:40.280Z,12.27
2022-10-22T18:04:43.342Z,12.31
2022-10-22T18:06:47.597Z,12.17
2022-10-22T18:08:50.915Z,12.01
2022-10-22T18:10:53.522Z,11.99
2022-10-22T18:12:56.080Z,12.09
2022-10-22T18:14:58.636Z,12.28
2022-10-22T18:17:03.141Z,12.24
2022-10-22T18:19:05.767Z,12.16
2022-10-22T18:21:08.716Z,12.26
2022-10-22T18:23:14.621Z,12.26
2022-10-22T18:25:17.560Z,12.26
2022-10-22T18:27:20.567Z,12.35
2022-10-22T18:29:23.286Z,12.48
2022-10-22T18:31:27.858Z,12.53
2022-10-22T18:33:30.870Z,12.43
2022-10-22T18:35:33.915Z,12.38
2022-10-22T18:37:36.934Z,12.18
2022-10-22T18:39:39.871Z,12.31
2022-10-22T18:41:43.653Z,12.15
2022-10-22T18:43:51.258Z,12.12
2022-10-22T18:45:54.313Z,12.21
2022-10-22T18:47:59.626Z,12.14
2022-10-22T18:50:02.850Z,12.17
2022-10-22T18:52:05.871Z,12.11
2022-10-22T18:54:24.239Z,12.12
2022-10-22T18:56:27.888Z,12.20
2022-10-22T18:58:30.918Z,12.21
2022-10-22T19:00:35.728Z,12.17
2022-10-22T19:02:38.405Z,12.40
2022-10-22T19:04:41.325Z,12.31
2022-10-22T19:06:45.830Z,12.16
2022-10-22T19:08:51.309Z,12.31
2022-10-22T19:10:54.371Z,12.10
2022-10-22T19:12:56.744Z,12.06
2022-10-22T19:14:58.939Z,12.05
2022-10-22T19:17:01.970Z,11.95
2022-10-22T19:19:06.883Z,12.00
2022-10-22T19:21:09.576Z,11.85
2022-10-22T19:23:13.647Z,11.76
2022-10-22T19:25:18.876Z,11.66
2022-10-22T19:27:21.255Z,11.70
2022-10-22T19:29:24.093Z,11.69
2022-10-22T19:31:30.354Z,11.64
2022-10-22T19:33:34.709Z,11.73
2022-10-22T19:35:37.729Z,11.64
2022-10-22T19:37:41.538Z,11.65
2022-10-22T19:39:46.433Z,11.64
2022-10-22T19:41:49.380Z,11.82
2022-10-22T19:43:54.485Z,11.58
2022-10-22T19:45:59.290Z,11.68
2022-10-22T19:48:02.085Z,11.45
2022-10-22T19:50:04.661Z,11.66
2022-10-22T19:52:07.022Z,11.61
2022-10-22T19:54:21.665Z,11.74
2022-10-22T19:56:24.394Z,11.58
2022-10-22T19:58:28.032Z,11.51
2022-10-22T20:00:33.444Z,11.31
2022-10-22T20:02:37.005Z,11.36
2022-10-22T20:04:39.349Z,11.36
2022-10-22T20:06:42.064Z,11.53
2022-10-22T20:08:45.428Z,11.52
2022-10-22T20:10:50.983Z,11.34
2022-10-22T20:12:53.322Z,11.32
2022-10-22T20:14:55.995Z,11.27
2022-10-22T20:16:58.354Z,11.17
2022-10-22T20:19:03.207Z,11.21
2022-10-22T20:21:07.112Z,11.20
2022-10-22T20:23:09.900Z,11.20
2022-10-22T20:25:12.772Z,11.27
2022-10-22T20:27:15.734Z,11.18
2022-10-22T20:29:19.197Z,11.19
2022-10-22T20:31:24.597Z,11.12
2022-10-22T20:33:27.361Z,11.05
2022-10-22T20:35:29.644Z,11.07
2022-10-22T20:37:32.093Z,11.16
2022-10-22T20:39:34.965Z,11.31
2022-10-22T20:41:41.494Z,11.16
2022-10-22T20:43:46.177Z,11.11
2022-10-22T20:45:49.522Z,11.22
2022-10-22T20:48:01.949Z,11.30
2022-10-22T20:50:06.665Z,11.35
2022-10-22T20:52:09.480Z,11.39
2022-10-22T20:54:13.903Z,11.24
2022-10-22T20:56:17.820Z,11.27
2022-10-22T20:58:24.484Z,11.23
2022-10-22T21:00:29.209Z,11.32
2022-10-22T21:02:32.367Z,11.36
2022-10-22T21:04:35.239Z,11.40
2022-10-22T21:06:41.903Z,11.43
2022-10-22T21:08:44.195Z,11.41
2022-10-22T21:10:49.221Z,11.39
2022-10-22T21:12:51.608Z,11.39
2022-10-22T21:14:53.825Z,11.23
2022-10-22T21:16:56.996Z,11.06
2022-10-22T21:18:59.303Z,11.13
2022-10-22T21:21:02.679Z,11.12
2022-10-22T21:23:05.208Z,11.23
2022-10-22T21:25:07.898Z,11.08
2022-10-22T21:27:10.189Z,11.03
2022-10-22T21:29:13.591Z,10.86
2022-10-22T21:31:24.286Z,10.93
2022-10-22T21:33:26.543Z,10.91
2022-10-22T21:35:29.551Z,10.94
2022-10-22T21:37:35.199Z,11.04
2022-10-22T21:39:41.221Z,11.02
2022-10-22T21:41:45.470Z,10.96
2022-10-22T21:43:47.876Z,10.94
2022-10-22T21:45:50.123Z,11.00
2022-10-22T21:47:52.612Z,11.03
2022-10-22T21:49:54.881Z,11.00
2022-10-22T21:51:57.208Z,10.98
2022-10-22T21:54:00.395Z,11.04
2022-10-22T21:56:03.529Z,11.05
2022-10-22T21:58:06.437Z,11.14
2022-10-22T22:00:09.648Z,11.03
2022-10-22T22:04:28.424Z,10.92
2022-10-22T22:06:33.386Z,11.01
2022-10-22T22:08:38.649Z,11.04
2022-10-22T22:12:52.286Z,11.04
2022-10-22T22:14:54.493Z,11.01
